Time;durP1;ratioP1;P1;durP2;ratioP2;P2;SDS_P1;SDS_P2;PMS_P1;PMS_P2;Temp;Humidity;BMP_temperature;BMP_pressure;BME280_temperature;BME280_humidity;BME280_pressure;Samples;Min_cycle;Max_cycle;Signal;HPM_P1;HPM_P2
2022/10/18 00:01:10;;;;;;;11.27;3.30;;;14.10;99.90;;;;;;5017312;28;20041;-81
2022/10/18 00:03:36;;;;;;;16.70;3.72;;;14.00;99.90;;;;;;5033771;28;20041;-80
2022/10/18 00:06:02;;;;;;;14.60;3.33;;;14.00;99.90;;;;;;5005903;28;20042;-81
2022/10/18 00:08:28;;;;;;;17.75;3.53;;;14.00;99.90;;;;;;5001210;28;20037;-81
2022/10/18 00:10:54;;;;;;;13.50;3.40;;;14.00;99.90;;;;;;4983250;28;20088;-81
2022/10/18 00:13:20;;;;;;;17.40;3.58;;;14.00;99.90;;;;;;5005635;28;20128;-81
2022/10/18 00:15:52;;;;;;;16.98;3.33;;;14.00;99.90;;;;;;4984302;28;20128;-80
2022/10/18 00:18:18;;;;;;;18.63;3.60;;;14.10;99.90;;;;;;4998902;28;20149;-81
2022/10/18 00:20:44;;;;;;;13.95;3.38;;;14.10;99.90;;;;;;5018766;28;20053;-81
2022/10/18 00:23:10;;;;;;;13.60;3.78;;;14.10;99.90;;;;;;5031700;28;20049;-81
2022/10/18 00:25:36;;;;;;;20.95;4.05;;;14.10;99.90;;;;;;5018404;28;20514;-81
2022/10/18 00:28:04;;;;;;;15.68;3.47;;;14.10;99.90;;;;;;5016632;28;20060;-81
2022/10/18 00:30:30;;;;;;;15.65;3.47;;;14.10;99.90;;;;;;5016345;28;20046;-81
2022/10/18 00:32:56;;;;;;;14.73;3.22;;;14.10;99.90;;;;;;4996678;28;20565;-80
2022/10/18 00:35:21;;;;;;;15.95;3.58;;;14.10;99.90;;;;;;5015735;28;20051;-80
2022/10/18 00:37:47;;;;;;;18.52;3.47;;;14.10;99.90;;;;;;4999539;28;20048;-81
2022/10/18 00:40:13;;;;;;;17.02;3.20;;;14.10;99.90;;;;;;5015461;28;20045;-81
2022/10/18 00:42:38;;;;;;;18.27;3.53;;;14.10;99.90;;;;;;5005444;28;20081;-80
2022/10/18 00:45:04;;;;;;;17.92;3.80;;;14.10;99.90;;;;;;5001890;28;20049;-81
2022/10/18 00:47:31;;;;;;;20.88;3.60;;;14.20;99.90;;;;;;4995122;28;20506;-81
2022/10/18 00:50:01;;;;;;;17.75;3.53;;;14.10;99.90;;;;;;4978962;28;20515;-81
2022/10/18 00:52:37;;;;;;;15.43;3.55;;;14.10;99.90;;;;;;5005824;28;20046;-81
2022/10/18 00:55:04;;;;;;;17.60;3.05;;;14.10;99.90;;;;;;4996168;28;20045;-81
2022/10/18 00:57:30;;;;;;;18.75;3.17;;;14.10;99.90;;;;;;5014086;28;20042;-82
2022/10/18 00:59:56;;;;;;;13.88;3.13;;;14.00;99.90;;;;;;5015595;28;20080;-81
2022/10/18 01:02:22;;;;;;;15.63;3.08;;;14.00;99.90;;;;;;5000279;28;20083;-84
2022/10/18 01:04:49;;;;;;;20.58;3.30;;;14.80;99.90;;;;;;5000595;28;20045;-84
2022/10/18 01:07:26;;;;;;;13.40;2.97;;;14.00;99.90;;;;;;4998891;28;20037;-81
2022/10/18 01:10:33;;;;;;;13.45;3.10;;;14.00;99.90;;;;;;4996471;28;20049;-82
2022/10/18 01:12:59;;;;;;;;;;;14.00;99.90;;;;;;5021720;28;20073;-81
2022/10/18 01:15:57;;;;;;;14.23;3.03;;;14.00;99.90;;;;;;5013957;28;19921;-81
2022/10/18 01:18:25;;;;;;;14.00;3.30;;;13.90;99.90;;;;;;5004352;28;20130;-82
2022/10/18 01:21:13;;;;;;;13.50;3.55;;;13.90;99.90;;;;;;5016300;28;20045;-81
2022/10/18 01:24:17;;;;;;;12.25;2.60;;;13.90;99.90;;;;;;5014561;28;20495;-82
2022/10/18 01:27:19;;;;;;;18.45;3.20;;;13.80;99.90;;;;;;5013160;28;20041;-81
2022/10/18 01:30:03;;;;;;;15.05;3.15;;;13.80;99.90;;;;;;5010658;28;20103;-81
2022/10/18 01:32:38;;;;;;;18.70;3.05;;;13.80;99.90;;;;;;5004531;28;20083;-81
2022/10/18 01:35:10;;;;;;;15.27;3.13;;;13.80;99.90;;;;;;5019633;28;20510;-81
2022/10/18 01:37:38;;;;;;;16.17;3.10;;;13.80;99.90;;;;;;5040669;28;20047;-81
2022/10/18 01:40:05;;;;;;;12.73;3.00;;;13.80;99.90;;;;;;5020757;28;20046;-81
2022/10/18 01:42:31;;;;;;;13.23;3.38;;;13.80;99.90;;;;;;5019513;28;20061;-81
2022/10/18 01:45:00;;;;;;;13.18;2.92;;;13.80;99.90;;;;;;5018664;28;20057;-81
2022/10/18 01:47:26;;;;;;;14.45;3.50;;;13.80;99.90;;;;;;5019016;28;20071;-81
2022/10/18 01:50:01;;;;;;;13.65;3.00;;;13.80;99.90;;;;;;5019954;28;20053;-81
2022/10/18 01:52:26;;;;;;;11.98;3.05;;;13.80;99.90;;;;;;5008771;28;20053;-81
2022/10/18 01:54:54;;;;;;;14.10;2.75;;;13.70;99.90;;;;;;5008551;28;20042;-81
2022/10/18 01:57:38;;;;;;;13.60;2.72;;;14.60;99.90;;;;;;5008157;28;20050;-81
2022/10/18 02:00:12;;;;;;;14.48;2.92;;;13.70;99.90;;;;;;4998449;28;20691;-81
2022/10/18 02:03:00;;;;;;;14.38;2.95;;;13.60;99.90;;;;;;5021258;28;20065;-81
2022/10/18 02:05:31;;;;;;;12.50;2.60;;;13.60;99.90;;;;;;5004196;28;20046;-81
2022/10/18 02:08:06;;;;;;;17.38;2.63;;;13.60;99.90;;;;;;5008403;28;20049;-81
2022/10/18 02:10:40;;;;;;;12.27;2.28;;;13.60;99.90;;;;;;5007441;28;20056;-81
2022/10/18 02:13:08;;;;;;;13.73;2.92;;;13.50;99.90;;;;;;5009177;28;20052;-81
2022/10/18 02:15:37;;;;;;;15.60;2.65;;;13.50;99.90;;;;;;5018994;28;20046;-81
2022/10/18 02:18:09;;;;;;;13.63;2.90;;;13.50;99.90;;;;;;5017162;28;20048;-82
2022/10/18 02:20:37;;;;;;;15.55;2.92;;;13.50;99.90;;;;;;5024990;28;20057;-81
2022/10/18 02:23:07;;;;;;;16.92;3.38;;;13.50;99.90;;;;;;5019289;28;20049;-82
2022/10/18 02:25:35;;;;;;;14.68;2.30;;;13.50;99.90;;;;;;5018196;28;20042;-81
2022/10/18 02:28:02;;;;;;;15.32;2.50;;;13.40;99.90;;;;;;5018836;28;20405;-81
2022/10/18 02:30:36;;;;;;;15.18;2.35;;;13.40;99.90;;;;;;5019624;28;20049;-82
2022/10/18 02:33:20;;;;;;;11.73;1.95;;;13.50;99.90;;;;;;4998782;28;21875;-82
2022/10/18 02:35:55;;;;;;;14.07;2.70;;;13.40;99.90;;;;;;5018551;28;20403;-82
2022/10/18 02:38:24;;;;;;;12.17;2.60;;;13.40;99.90;;;;;;5018587;28;20053;-81
2022/10/18 02:40:50;;;;;;;9.82;2.30;;;13.40;99.90;;;;;;5018466;28;20045;-81
2022/10/18 02:43:15;;;;;;;16.98;2.88;;;13.40;99.90;;;;;;5002780;28;20045;-81
2022/10/18 02:45:41;;;;;;;13.98;2.63;;;13.30;99.90;;;;;;4995656;28;20094;-82
2022/10/18 02:48:08;;;;;;;14.07;2.63;;;13.30;99.90;;;;;;4990438;28;20502;-81
2022/10/18 02:50:33;;;;;;;12.85;2.42;;;13.30;99.90;;;;;;5003241;28;20560;-81
2022/10/18 02:52:59;;;;;;;21.70;2.67;;;13.30;99.90;;;;;;5003440;28;20045;-81
2022/10/18 02:55:25;;;;;;;12.15;2.30;;;13.20;99.90;;;;;;4996751;28;20543;-82
2022/10/18 02:57:50;;;;;;;14.40;2.38;;;13.20;99.90;;;;;;5006808;28;20057;-81
2022/10/18 03:00:16;;;;;;;16.50;2.70;;;13.20;99.90;;;;;;4990869;28;20045;-81
2022/10/18 03:02:42;;;;;;;12.52;2.13;;;13.20;99.90;;;;;;5003039;28;20099;-81
2022/10/18 03:05:08;;;;;;;13.57;2.60;;;13.20;99.90;;;;;;5000927;28;20041;-80
2022/10/18 03:07:33;;;;;;;15.52;3.30;;;13.10;99.90;;;;;;5002400;28;20053;-81
2022/10/18 03:09:59;;;;;;;13.20;2.28;;;13.10;99.90;;;;;;4995760;28;20310;-81
2022/10/18 03:12:25;;;;;;;11.75;2.42;;;13.00;99.90;;;;;;5000350;28;20049;-82
2022/10/18 03:14:50;;;;;;;7.15;1.90;;;13.00;99.90;;;;;;4990270;28;20045;-81
2022/10/18 03:17:16;;;;;;;9.80;2.45;;;13.00;99.90;;;;;;5001955;28;20132;-81
2022/10/18 03:19:42;;;;;;;13.80;2.35;;;12.90;99.90;;;;;;5017999;28;20230;-82
2022/10/18 03:22:07;;;;;;;13.30;2.63;;;12.90;99.90;;;;;;5000427;28;20115;-81
2022/10/18 03:24:33;;;;;;;13.18;2.20;;;12.90;99.90;;;;;;5005661;28;20052;-81
2022/10/18 03:26:59;;;;;;;9.75;1.92;;;12.80;99.90;;;;;;4989544;28;20124;-81
2022/10/18 03:29:24;;;;;;;15.38;2.60;;;12.80;99.90;;;;;;5019176;28;20046;-81
2022/10/18 03:31:50;;;;;;;14.40;2.60;;;12.80;99.90;;;;;;4995909;28;20045;-81
2022/10/18 03:34:16;;;;;;;7.97;2.47;;;12.80;99.90;;;;;;5003303;28;21257;-81
2022/10/18 03:36:42;;;;;;;13.25;2.03;;;12.70;99.90;;;;;;4999088;28;20053;-81
2022/10/18 03:39:09;;;;;;;9.23;2.33;;;12.70;99.90;;;;;;4989976;28;20081;-81
2022/10/18 03:41:35;;;;;;;11.25;2.00;;;12.60;99.90;;;;;;5017871;28;20540;-81
2022/10/18 03:44:01;;;;;;;7.93;1.88;;;12.60;99.90;;;;;;5018531;28;20041;-81
2022/10/18 03:46:27;;;;;;;9.05;2.20;;;12.50;99.90;;;;;;4999805;28;20089;-82
2022/10/18 03:48:52;;;;;;;9.20;1.77;;;12.50;99.90;;;;;;4998633;28;20056;-81
2022/10/18 03:51:18;;;;;;;10.35;2.45;;;12.40;99.90;;;;;;5017743;28;20049;-81
2022/10/18 03:53:44;;;;;;;15.05;2.15;;;12.40;99.90;;;;;;5000435;28;20053;-84
2022/10/18 03:56:09;;;;;;;8.20;1.83;;;12.40;99.90;;;;;;5000828;28;20398;-82
2022/10/18 03:58:35;;;;;;;8.18;1.95;;;12.30;99.90;;;;;;5000799;28;20053;-81
2022/10/18 04:01:01;;;;;;;8.50;1.60;;;12.20;99.90;;;;;;5006034;28;20060;-81
2022/10/18 04:03:26;;;;;;;8.98;2.50;;;12.20;99.90;;;;;;5013062;28;20049;-81
2022/10/18 04:05:52;;;;;;;10.85;2.20;;;12.20;99.90;;;;;;4990150;28;20041;-81
2022/10/18 04:08:18;;;;;;;9.32;2.45;;;12.10;99.90;;;;;;5017885;28;20108;-81
2022/10/18 04:10:44;;;;;;;10.15;2.17;;;12.10;99.90;;;;;;4983566;28;20077;-81
2022/10/18 04:13:10;;;;;;;5.65;1.63;;;12.10;99.90;;;;;;5000880;28;20045;-81
2022/10/18 04:15:35;;;;;;;6.40;1.90;;;11.70;99.90;;;;;;4999322;28;20045;-81
2022/10/18 04:18:01;;;;;;;11.00;2.28;;;12.00;99.90;;;;;;4996796;28;20042;-81
2022/10/18 04:20:27;;;;;;;6.90;2.03;;;11.90;99.90;;;;;;5019883;28;20142;-81
2022/10/18 04:22:57;;;;;;;6.15;1.67;;;11.80;99.90;;;;;;5000541;28;20053;-81
2022/10/18 04:25:23;;;;;;;7.53;2.05;;;11.70;99.90;;;;;;4969140;28;20133;-81
2022/10/18 04:27:49;;;;;;;9.00;1.75;;;11.70;99.90;;;;;;5016093;28;20480;-81
2022/10/18 04:30:15;;;;;;;11.43;1.52;;;11.70;99.90;;;;;;4984179;28;20077;-81
2022/10/18 04:32:41;;;;;;;6.60;2.00;;;11.60;99.90;;;;;;4999200;28;20546;-81
2022/10/18 04:35:07;;;;;;;12.07;1.90;;;11.50;99.90;;;;;;5007030;28;20045;-81
2022/10/18 04:37:33;;;;;;;10.85;2.00;;;11.50;99.90;;;;;;4987715;28;20057;-81
2022/10/18 04:39:59;;;;;;;7.30;1.80;;;11.40;99.90;;;;;;4999950;28;20041;-81
2022/10/18 04:42:24;;;;;;;9.10;1.98;;;11.40;99.90;;;;;;4995750;28;20095;-80
2022/10/18 04:44:50;;;;;;;8.25;2.50;;;11.40;99.90;;;;;;4999405;28;20053;-81
2022/10/18 04:47:16;;;;;;;6.05;1.70;;;11.30;99.90;;;;;;4987443;28;20044;-82
2022/10/18 04:49:42;;;;;;;8.52;2.25;;;11.30;99.90;;;;;;5016930;28;20058;-81
2022/10/18 04:52:09;;;;;;;6.40;1.75;;;11.20;99.90;;;;;;5021092;28;20131;-81
2022/10/18 04:54:35;;;;;;;5.13;1.50;;;11.20;99.90;;;;;;4994590;28;20483;-81
2022/10/18 04:57:00;;;;;;;3.72;1.42;;;11.20;99.90;;;;;;5014859;28;20053;-81
2022/10/18 04:59:26;;;;;;;7.65;1.92;;;11.10;99.90;;;;;;4984693;28;20057;-81
2022/10/18 05:01:52;;;;;;;8.73;1.70;;;11.10;99.90;;;;;;4988325;28;20111;-82
2022/10/18 05:04:17;;;;;;;10.70;2.15;;;11.10;99.90;;;;;;4999595;28;20057;-82
2022/10/18 05:06:43;;;;;;;8.85;2.50;;;11.00;99.90;;;;;;5015211;28;20038;-82
2022/10/18 05:09:09;;;;;;;8.38;1.95;;;10.90;99.90;;;;;;5014793;28;20093;-81
2022/10/18 05:11:35;;;;;;;5.90;2.10;;;10.90;99.90;;;;;;4982827;28;20167;-82
2022/10/18 05:14:00;;;;;;;6.45;1.85;;;10.80;99.90;;;;;;4999956;28;20107;-81
2022/10/18 05:16:27;;;;;;;8.52;1.95;;;10.80;99.90;;;;;;5000920;28;20049;-81
2022/10/18 05:18:53;;;;;;;7.70;1.88;;;10.80;99.90;;;;;;5001946;28;20052;-81
2022/10/18 05:21:19;;;;;;;7.47;1.80;;;10.70;99.90;;;;;;4994730;28;20045;-81
2022/10/18 05:23:44;;;;;;;11.68;2.25;;;10.70;99.90;;;;;;4987863;28;20570;-81
2022/10/18 05:26:10;;;;;;;9.25;2.60;;;10.60;99.90;;;;;;5004693;28;20049;-81
2022/10/18 05:28:36;;;;;;;8.10;2.10;;;10.60;99.90;;;;;;5016013;28;20045;-81
2022/10/18 05:31:07;;;;;;;7.18;1.90;;;10.60;99.90;;;;;;5015623;28;20072;-81
2022/10/18 05:33:36;;;;;;;5.80;2.15;;;10.60;99.90;;;;;;5005009;28;20061;-81
2022/10/18 05:36:02;;;;;;;6.90;2.10;;;10.60;99.90;;;;;;4999068;28;20507;-81
2022/10/18 05:38:29;;;;;;;9.02;2.00;;;10.50;99.90;;;;;;5017703;28;20049;-80
2022/10/18 05:40:56;;;;;;;8.50;2.35;;;10.50;99.90;;;;;;4984863;28;20048;-81
2022/10/18 05:43:21;;;;;;;6.65;2.40;;;10.40;99.90;;;;;;5002358;28;20049;-81
2022/10/18 05:45:49;;;;;;;7.78;2.03;;;10.40;99.90;;;;;;4999421;28;20041;-81
2022/10/18 05:48:15;;;;;;;8.23;1.88;;;10.40;99.90;;;;;;5004684;28;21252;-80
2022/10/18 05:50:40;;;;;;;8.60;1.90;;;10.40;99.90;;;;;;4981904;28;20060;-81
2022/10/18 05:53:06;;;;;;;12.00;2.28;;;10.40;99.90;;;;;;5004732;28;20045;-80
2022/10/18 05:55:32;;;;;;;4.82;1.42;;;10.30;99.90;;;;;;5016817;28;20049;-81
2022/10/18 05:57:58;;;;;;;5.57;1.77;;;10.30;99.90;;;;;;5000911;28;20042;-80
2022/10/18 06:00:23;;;;;;;5.57;1.83;;;10.30;99.90;;;;;;4996776;28;20107;-80
2022/10/18 06:02:49;;;;;;;9.38;2.30;;;10.30;99.90;;;;;;4982131;28;20060;-81
2022/10/18 06:05:15;;;;;;;8.30;2.00;;;10.30;99.90;;;;;;5000357;28;20077;-81
2022/10/18 06:07:40;;;;;;;9.13;2.00;;;10.20;99.90;;;;;;5014591;28;20057;-82
2022/10/18 06:10:06;;;;;;;9.90;2.13;;;10.30;99.90;;;;;;4982448;28;20053;-81
2022/10/18 06:12:32;;;;;;;4.45;1.52;;;10.20;99.90;;;;;;4998529;28;21104;-81
2022/10/18 06:14:58;;;;;;;7.38;1.95;;;10.20;99.90;;;;;;5004606;28;20049;-82
2022/10/18 06:17:24;;;;;;;5.13;1.83;;;10.20;99.90;;;;;;4987342;28;20138;-83
2022/10/18 06:19:49;;;;;;;8.15;2.08;;;10.20;99.90;;;;;;4988195;28;20053;-81
2022/10/18 06:22:15;;;;;;;8.10;1.65;;;10.20;99.90;;;;;;5003921;28;20049;-84
2022/10/18 06:24:44;;;;;;;4.70;1.58;;;10.20;99.90;;;;;;5000192;28;20049;-80
2022/10/18 06:27:10;;;;;;;8.98;2.10;;;10.20;99.90;;;;;;4994223;28;20044;-83
2022/10/18 06:29:36;;;;;;;7.65;1.80;;;10.10;99.90;;;;;;4992192;28;20050;-83
2022/10/18 06:32:02;;;;;;;7.78;2.00;;;10.10;99.90;;;;;;5003376;28;20049;-82
2022/10/18 06:34:29;;;;;;;9.10;1.92;;;10.10;99.90;;;;;;4985346;28;20097;-82
2022/10/18 06:36:55;;;;;;;5.70;1.52;;;10.10;99.90;;;;;;5019539;28;20111;-82
2022/10/18 06:39:20;;;;;;;5.20;1.40;;;10.10;99.90;;;;;;5018212;28;20471;-81
2022/10/18 06:41:46;;;;;;;9.73;2.08;;;10.10;99.90;;;;;;5018417;28;20064;-83
2022/10/18 06:44:16;;;;;;;9.82;2.45;;;10.20;99.90;;;;;;4999212;28;20673;-84
2022/10/18 06:46:42;;;;;;;11.73;2.08;;;10.20;99.90;;;;;;5018203;28;20046;-81
2022/10/18 06:49:08;;;;;;;13.55;2.20;;;10.20;99.90;;;;;;5019371;28;20049;-82
2022/10/18 06:51:34;;;;;;;6.13;2.00;;;10.30;99.90;;;;;;5018827;28;20046;-81
2022/10/18 06:54:00;;;;;;;8.30;1.77;;;10.40;99.90;;;;;;5003163;28;20524;-82
2022/10/18 06:56:25;;;;;;;8.70;1.65;;;10.50;99.90;;;;;;5003431;28;20494;-83
2022/10/18 06:58:51;;;;;;;13.00;1.90;;;10.50;99.90;;;;;;5001592;28;20057;-83
2022/10/18 07:01:17;;;;;;;12.30;2.10;;;10.50;99.90;;;;;;5021454;28;20052;-82
2022/10/18 07:03:45;;;;;;;9.40;2.03;;;10.60;99.90;;;;;;5022269;28;20053;-82
2022/10/18 07:06:14;;;;;;;11.45;2.08;;;10.70;99.90;;;;;;4989577;28;21185;-82
2022/10/18 07:08:40;;;;;;;8.27;1.80;;;10.80;99.90;;;;;;5003790;28;20080;-82
2022/10/18 07:11:07;;;;;;;15.65;2.35;;;10.80;99.90;;;;;;4978361;28;20038;-90
2022/10/18 07:13:33;;;;;;;11.75;2.05;;;10.80;99.90;;;;;;5014634;28;20053;-82
2022/10/18 07:16:07;;;;;;;11.77;2.60;;;10.90;99.90;;;;;;4987412;28;20132;-82
2022/10/18 07:18:41;;;;;;;12.85;2.22;;;11.10;99.90;;;;;;5019548;28;20111;-81
2022/10/18 07:21:12;;;;;;;9.65;2.08;;;11.20;99.90;;;;;;5020911;28;20049;-81
2022/10/18 07:23:41;;;;;;;12.43;2.75;;;11.40;99.90;;;;;;5015846;28;20050;-82
2022/10/18 07:26:26;;;;;;;10.63;2.17;;;11.50;99.90;;;;;;5019521;28;20048;-82
2022/10/18 07:29:12;;;;;;;7.88;2.35;;;11.50;99.90;;;;;;5007491;28;20041;-81
2022/10/18 07:31:38;;;;;;;10.05;2.50;;;11.50;99.90;;;;;;5017791;28;20507;-82
2022/10/18 07:34:05;;;;;;;10.85;2.35;;;11.60;99.90;;;;;;5015921;28;20218;-81
2022/10/18 07:36:31;;;;;;;8.25;2.05;;;11.90;99.90;;;;;;5000454;28;20078;-82
2022/10/18 07:38:56;;;;;;;11.43;2.40;;;11.70;99.90;;;;;;5019827;28;20176;-82
2022/10/18 07:41:22;;;;;;;9.43;2.00;;;11.80;99.90;;;;;;4989818;28;20041;-82
2022/10/18 07:43:50;;;;;;;14.35;2.38;;;11.90;99.90;;;;;;5016402;28;20056;-82
2022/10/18 07:46:17;;;;;;;10.32;2.95;;;11.90;99.90;;;;;;4995624;28;20056;-83
2022/10/18 07:48:43;;;;;;;15.65;2.47;;;11.90;99.90;;;;;;5018802;28;20064;-82
2022/10/18 07:51:09;;;;;;;13.73;2.47;;;12.00;99.90;;;;;;5001372;28;20049;-82
2022/10/18 07:53:35;;;;;;;9.95;2.05;;;12.10;99.90;;;;;;4997857;28;20056;-82
2022/10/18 07:56:04;;;;;;;10.40;2.00;;;12.10;99.90;;;;;;5011718;28;20057;-82
2022/10/18 07:58:32;;;;;;;16.17;3.58;;;12.30;99.90;;;;;;5000766;28;20386;-83
2022/10/18 08:01:04;;;;;;;16.63;3.22;;;12.30;99.90;;;;;;5020456;28;20047;-86
2022/10/18 08:03:30;;;;;;;18.50;2.85;;;12.40;99.90;;;;;;5021635;28;20053;-86
2022/10/18 08:05:56;;;;;;;10.13;1.98;;;12.60;99.90;;;;;;5008142;28;20046;-86
2022/10/18 08:08:23;;;;;;;8.93;2.08;;;12.20;99.90;;;;;;5018390;28;20709;-87
2022/10/18 08:10:49;;;;;;;10.52;2.30;;;12.80;99.90;;;;;;5019294;28;20882;-87
2022/10/18 08:13:15;;;;;;;9.43;2.78;;;13.00;99.90;;;;;;4984692;28;20049;-86
2022/10/18 08:15:49;;;;;;;10.02;2.22;;;13.10;99.90;;;;;;5023548;28;20119;-91
2022/10/18 08:18:15;;;;;;;10.52;2.45;;;13.10;99.90;;;;;;5003805;28;20049;-86
2022/10/18 08:20:45;;;;;;;11.65;2.85;;;14.60;99.90;;;;;;5015481;28;20110;-87
2022/10/18 08:23:14;;;;;;;11.57;2.60;;;13.60;99.90;;;;;;5014233;28;20052;-87
2022/10/18 08:25:40;;;;;;;11.60;2.70;;;13.90;99.90;;;;;;5019627;28;20047;-86
2022/10/18 08:28:09;;;;;;;12.73;2.30;;;13.80;99.90;;;;;;5016758;28;20038;-87
2022/10/18 08:30:37;;;;;;;9.77;2.10;;;14.00;99.90;;;;;;5006445;28;20124;-87
2022/10/18 08:33:09;;;;;;;12.40;2.55;;;14.10;99.90;;;;;;4999070;28;20205;-87
2022/10/18 08:35:35;;;;;;;13.32;2.25;;;14.30;99.90;;;;;;5018326;28;20061;-87
2022/10/18 08:38:01;;;;;;;9.60;2.30;;;14.40;99.90;;;;;;5005252;28;20071;-87
2022/10/18 08:40:29;;;;;;;8.63;1.88;;;14.40;99.90;;;;;;5016970;28;20558;-87
2022/10/18 08:43:01;;;;;;;11.77;2.65;;;14.50;99.90;;;;;;4996609;28;20107;-87
2022/10/18 08:45:27;;;;;;;15.63;3.05;;;14.30;99.90;;;;;;5005304;28;20041;-88
2022/10/18 08:47:56;;;;;;;12.77;2.08;;;14.40;99.90;;;;;;5017711;28;20049;-87
2022/10/18 08:50:27;;;;;;;11.43;2.53;;;14.20;99.90;;;;;;5016640;28;20088;-88
2022/10/18 08:53:09;;;;;;;9.55;2.38;;;14.20;99.90;;;;;;5016761;28;20369;-87
2022/10/18 08:55:43;;;;;;;13.48;2.15;;;14.10;99.90;;;;;;5002901;28;20060;-87
2022/10/18 08:58:22;;;;;;;7.32;1.55;;;14.20;99.90;;;;;;4997832;28;20076;-87
2022/10/18 09:01:17;;;;;;;11.15;2.30;;;14.10;99.90;;;;;;4997863;28;20049;-87
2022/10/18 09:04:03;;;;;;;11.60;2.00;;;14.00;99.90;;;;;;5023397;28;20057;-87
2022/10/18 09:06:56;;;;;;;8.32;1.85;;;14.00;99.90;;;;;;4996493;28;20099;-87
2022/10/18 09:09:49;;;;;;;10.48;1.70;;;14.00;99.90;;;;;;4996959;28;20102;-88
2022/10/18 09:12:42;;;;;;;5.60;1.95;;;14.00;99.90;;;;;;5021440;28;20109;-87
2022/10/18 09:15:27;;;;;;;11.48;1.90;;;13.90;99.90;;;;;;5001987;28;20045;-87
2022/10/18 09:18:19;;;;;;;9.60;1.70;;;13.90;99.90;;;;;;5015657;28;20333;-85
2022/10/18 09:20:59;;;;;;;12.43;2.22;;;13.10;99.90;;;;;;5005005;28;20046;-82
2022/10/18 09:23:47;;;;;;;10.63;1.63;;;13.90;99.90;;;;;;5018530;28;20521;-82
2022/10/18 09:26:18;;;;;;;8.15;1.92;;;13.90;99.90;;;;;;5019166;28;20373;-82
2022/10/18 09:29:22;;;;;;;10.13;1.77;;;13.90;99.90;;;;;;4998692;28;20142;-82
2022/10/18 09:31:47;;;;;;;10.48;1.90;;;13.90;99.90;;;;;;4997442;28;20514;-82
2022/10/18 09:34:28;;;;;;;7.32;1.80;;;13.90;99.90;;;;;;5014122;28;20062;-82
2022/10/18 09:36:54;;;;;;;8.45;1.58;;;13.90;99.90;;;;;;5001112;28;20037;-83
2022/10/18 09:39:48;;;;;;;9.10;1.83;;;13.90;99.90;;;;;;5013393;28;20113;-82
2022/10/18 09:42:16;;;;;;;12.07;2.28;;;13.60;99.90;;;;;;5006170;28;20114;-81
2022/10/18 09:44:59;;;;;;;8.30;1.70;;;14.00;99.90;;;;;;4996769;28;20045;-81
2022/10/18 09:47:37;;;;;;;5.43;1.67;;;14.00;99.90;;;;;;5005613;28;20538;-83
2022/10/18 09:50:20;;;;;;;9.23;2.10;;;14.00;99.90;;;;;;5000096;28;20052;-81
2022/10/18 09:53:03;;;;;;;10.63;2.45;;;14.00;99.90;;;;;;5016872;28;20049;-81
2022/10/18 09:55:34;;;;;;;10.65;1.92;;;14.00;99.90;;;;;;5017465;28;20133;-80
2022/10/18 09:58:04;;;;;;;7.53;2.05;;;14.00;99.90;;;;;;5019734;28;20103;-81
2022/10/18 10:00:47;;;;;;;8.75;1.70;;;14.10;99.90;;;;;;5005833;28;20059;-81
2022/10/18 10:03:16;;;;;;;7.85;2.03;;;14.10;99.90;;;;;;5028126;28;20124;-81
2022/10/18 10:05:43;;;;;;;9.15;1.75;;;14.20;99.90;;;;;;5000926;28;20045;-81
2022/10/18 10:08:09;;;;;;;9.32;1.58;;;14.20;99.90;;;;;;5004666;28;20049;-82
2022/10/18 10:10:39;;;;;;;6.80;2.33;;;14.20;99.90;;;;;;5001399;28;20077;-83
2022/10/18 10:13:20;;;;;;;10.23;1.90;;;14.40;99.90;;;;;;5001343;28;20054;-82
2022/10/18 10:15:55;;;;;;;6.97;1.80;;;14.40;99.90;;;;;;5022272;28;20045;-82
2022/10/18 10:18:25;;;;;;;8.55;1.52;;;14.50;99.90;;;;;;5018720;28;20054;-82
2022/10/18 10:20:58;;;;;;;9.07;1.58;;;14.60;99.90;;;;;;5019568;28;20583;-81
2022/10/18 10:23:35;;;;;;;7.60;1.70;;;14.70;99.90;;;;;;5020916;28;20451;-83
2022/10/18 10:26:22;;;;;;;8.05;1.70;;;14.80;99.90;;;;;;5017627;28;21003;-81
2022/10/18 10:28:47;;;;;;;8.82;2.03;;;15.00;99.90;;;;;;5035499;28;20049;-81
2022/10/18 10:31:25;;;;;;;9.90;2.80;;;15.10;99.90;;;;;;5002764;28;20053;-81
2022/10/18 10:34:00;;;;;;;14.82;4.38;;;15.20;99.90;;;;;;5020957;28;20573;-81
2022/10/18 10:36:26;;;;;;;18.30;7.43;;;15.20;99.90;;;;;;5023129;28;20093;-81
2022/10/18 10:39:09;;;;;;;11.68;2.67;;;15.40;99.90;;;;;;4991328;28;20101;-80
2022/10/18 10:41:38;;;;;;;12.70;4.82;;;15.40;99.90;;;;;;5020059;28;20638;-80
2022/10/18 10:44:20;;;;;;;10.85;2.10;;;15.40;99.90;;;;;;5020533;28;20076;-80
2022/10/18 10:46:49;;;;;;;9.90;2.75;;;15.30;99.90;;;;;;5010712;28;20128;-80
2022/10/18 10:49:23;;;;;;;9.23;3.40;;;15.30;99.90;;;;;;5011892;28;20526;-80
2022/10/18 10:52:01;;;;;;;10.32;2.10;;;15.30;99.90;;;;;;5024240;28;20076;-79
2022/10/18 10:54:34;;;;;;;8.63;1.80;;;15.40;99.90;;;;;;5019060;28;20068;-80
2022/10/18 10:57:03;;;;;;;10.15;1.92;;;15.50;99.90;;;;;;5019523;28;20038;-79
2022/10/18 10:59:46;;;;;;;6.13;2.20;;;16.40;99.90;;;;;;5022640;28;20063;-79
2022/10/18 11:02:16;;;;;;;10.45;2.03;;;17.40;99.90;;;;;;5023237;28;20506;-80
2022/10/18 11:04:44;;;;;;;10.30;2.42;;;17.70;99.90;;;;;;5000803;28;20140;-79
2022/10/18 11:07:26;;;;;;;7.68;1.83;;;18.50;99.90;;;;;;5018296;28;20118;-79
2022/10/18 11:10:11;;;;;;;9.05;1.92;;;19.40;99.90;;;;;;5020349;28;20045;-79
2022/10/18 11:13:17;;;;;;;8.77;1.98;;;19.30;99.90;;;;;;5020144;28;20453;-80
2022/10/18 11:15:49;;;;;;;9.60;1.70;;;18.70;99.90;;;;;;5027031;28;20056;-80
2022/10/18 11:18:31;;;;;;;8.98;1.60;;;18.30;99.90;;;;;;5019382;28;20057;-80
2022/10/18 11:21:06;;;;;;;8.63;1.73;;;17.90;99.90;;;;;;5003652;28;20050;-80
2022/10/18 11:23:35;;;;;;;5.22;1.52;;;17.60;99.90;;;;;;5020083;28;20103;-80
2022/10/18 11:26:10;;;;;;;9.25;1.80;;;17.50;99.90;;;;;;5027553;28;20100;-80
2022/10/18 11:28:57;;;;;;;6.20;1.52;;;17.30;99.90;;;;;;5003414;28;20085;-80
2022/10/18 11:31:40;;;;;;;6.72;1.63;;;17.30;99.90;;;;;;5019467;28;20069;-80
2022/10/18 11:34:18;;;;;;;7.55;1.95;;;17.30;99.90;;;;;;5026416;28;20400;-80
2022/10/18 11:37:14;;;;;;;9.70;1.77;;;17.70;99.90;;;;;;5019657;28;20072;-81
2022/10/18 11:39:52;;;;;;;7.18;1.90;;;17.90;99.90;;;;;;5009388;28;20042;-79
2022/10/18 11:42:42;;;;;;;7.05;1.70;;;18.20;99.90;;;;;;5019877;28;20402;-80
2022/10/18 11:45:29;;;;;;;9.65;1.58;;;18.30;99.90;;;;;;5035768;28;20049;-81
2022/10/18 11:48:21;;;;;;;8.82;2.25;;;19.30;99.90;;;;;;5012047;28;20065;-80
2022/10/18 11:51:02;;;;;;;9.50;1.65;;;20.30;99.90;;;;;;5003211;28;20058;-80
2022/10/18 11:53:36;;;;;;;8.65;1.73;;;21.20;99.90;;;;;;5026876;28;20049;-81
2022/10/18 11:56:17;;;;;;;6.80;1.55;;;22.00;99.90;;;;;;5002389;28;20054;-81
2022/10/18 11:59:09;;;;;;;6.03;1.83;;;22.70;99.90;;;;;;5020766;28;20449;-80
2022/10/18 12:01:42;;;;;;;7.35;1.83;;;22.30;99.90;;;;;;5019843;28;20081;-81
2022/10/18 12:04:18;;;;;;;10.48;1.92;;;21.90;99.90;;;;;;5019830;28;20085;-81
2022/10/18 12:06:45;;;;;;;;;;;22.20;99.90;;;;;;5036286;28;20072;-80
2022/10/18 12:09:46;;;;;;;5.38;1.30;;;22.40;99.90;;;;;;5002027;28;19921;-81
2022/10/18 12:12:30;;;;;;;4.93;1.58;;;22.80;99.90;;;;;;5018469;28;20056;-84
2022/10/18 12:15:00;;;;;;;4.90;1.42;;;23.30;99.90;;;;;;5001216;28;20053;-82
2022/10/18 12:17:49;;;;;;;5.60;1.50;;;23.40;99.90;;;;;;5018715;28;20049;-82
2022/10/18 12:20:30;;;;;;;7.30;1.70;;;23.70;99.90;;;;;;5001443;28;20065;-82
2022/10/18 12:23:04;;;;;;;8.10;1.65;;;23.90;99.90;;;;;;5002999;28;20049;-84
2022/10/18 12:25:34;;;;;;;8.27;1.67;;;24.10;99.90;;;;;;5018943;28;20612;-84
2022/10/18 12:28:20;;;;;;;7.78;1.50;;;24.40;99.90;;;;;;5020473;28;20561;-83
2022/10/18 12:30:58;;;;;;;5.90;1.30;;;24.80;99.90;;;;;;5021184;28;20053;-83
2022/10/18 12:33:29;;;;;;;5.38;1.30;;;25.00;99.90;;;;;;5001932;28;20068;-83
2022/10/18 12:36:13;;;;;;;7.47;1.90;;;25.30;99.90;;;;;;5015295;28;20069;-83
2022/10/18 12:38:46;;;;;;;6.97;1.60;;;25.30;99.90;;;;;;5018105;28;20052;-82
2022/10/18 12:41:32;;;;;;;6.75;1.40;;;25.30;99.90;;;;;;5023515;28;20128;-83
2022/10/18 12:44:04;;;;;;;6.60;1.50;;;25.10;99.20;;;;;;5017206;28;20087;-83
2022/10/18 12:46:55;;;;;;;6.32;1.85;;;24.90;99.90;;;;;;5001195;28;20282;-82
2022/10/18 12:49:31;;;;;;;6.95;1.50;;;24.90;99.90;;;;;;5017605;28;20060;-82
2022/10/18 12:52:04;;;;;;;5.75;1.30;;;24.80;99.90;;;;;;5000772;28;20058;-81
2022/10/18 12:54:39;;;;;;;7.45;1.58;;;24.60;99.90;;;;;;5016538;28;20151;-81
2022/10/18 12:57:21;;;;;;;6.13;1.55;;;24.40;99.50;;;;;;5023839;28;20049;-81
2022/10/18 12:59:46;;;;;;;6.88;1.67;;;24.30;99.90;;;;;;5016362;28;20068;-81
2022/10/18 13:02:23;;;;;;;5.22;1.30;;;24.30;99.90;;;;;;5017210;28;20053;-82
2022/10/18 13:04:48;;;;;;;5.55;1.58;;;24.30;98.90;;;;;;5023479;28;20149;-81